createdAt,value
2022-11-29T00:01:16.602Z,6.30
2022-11-29T00:03:43.578Z,6.30
2022-11-29T00:06:13.371Z,6.30
2022-11-29T00:08:41.433Z,6.30
2022-11-29T00:11:11.783Z,6.40
2022-11-29T00:13:38.868Z,6.40
2022-11-29T00:16:12.058Z,6.40
2022-11-29T00:18:38.968Z,6.40
2022-11-29T00:21:07.340Z,6.40
2022-11-29T00:23:34.925Z,6.40
2022-11-29T00:26:08.778Z,6.40
2022-11-29T00:28:36.623Z,6.40
2022-11-29T00:31:24.162Z,6.40
2022-11-29T00:33:51.655Z,6.40
2022-11-29T00:36:18.935Z,6.40
2022-11-29T00:38:46.262Z,6.40
2022-11-29T00:41:13.286Z,6.40
2022-11-29T00:43:40.259Z,6.40
2022-11-29T00:46:07.645Z,6.50
2022-11-29T00:48:35.209Z,6.40
2022-11-29T00:51:03.292Z,6.40
2022-11-29T00:53:30.001Z,6.40
2022-11-29T00:55:57.174Z,6.40
2022-11-29T00:58:24.077Z,6.40
2022-11-29T01:00:52.442Z,6.40
2022-11-29T01:03:19.331Z,6.40
2022-11-29T01:05:46.196Z,6.40
2022-11-29T01:08:14.165Z,6.40
2022-11-29T01:10:41.452Z,6.40
2022-11-29T01:13:09.420Z,6.40
2022-11-29T01:15:37.183Z,6.40
2022-11-29T01:18:04.027Z,6.40
2022-11-29T01:20:30.797Z,6.40
2022-11-29T01:22:58.153Z,6.30
2022-11-29T01:25:25.086Z,6.40
2022-11-29T01:27:51.869Z,6.40
2022-11-29T01:30:18.593Z,6.60
2022-11-29T01:32:45.321Z,6.40
2022-11-29T01:35:12.206Z,6.40
2022-11-29T01:37:38.950Z,6.40
2022-11-29T01:40:06.549Z,6.50
2022-11-29T01:42:33.415Z,6.40
2022-11-29T01:45:01.939Z,6.40
2022-11-29T01:47:29.113Z,6.60
2022-11-29T01:49:55.974Z,6.40
2022-11-29T01:52:26.011Z,6.60
2022-11-29T01:54:58.205Z,6.60
2022-11-29T01:57:25.875Z,6.40
2022-11-29T01:59:58.179Z,6.50
2022-11-29T02:02:48.843Z,6.50
2022-11-29T02:05:18.609Z,6.40
2022-11-29T02:07:49.703Z,6.50
2022-11-29T02:10:17.153Z,6.50
2022-11-29T02:12:54.241Z,6.50
2022-11-29T02:15:36.307Z,6.40
2022-11-29T02:18:07.849Z,6.40
2022-11-29T02:21:08.602Z,6.40
2022-11-29T02:23:44.568Z,6.40
2022-11-29T02:26:34.874Z,6.30
2022-11-29T02:29:30.748Z,6.40
2022-11-29T02:32:07.448Z,6.40
2022-11-29T02:34:37.062Z,6.40
2022-11-29T02:37:22.643Z,6.40
2022-11-29T02:40:08.253Z,6.40
2022-11-29T02:42:56.240Z,6.40
2022-11-29T02:45:34.622Z,6.50
2022-11-29T02:48:23.452Z,6.50
2022-11-29T02:51:12.135Z,6.40
2022-11-29T02:53:57.013Z,6.50
2022-11-29T02:56:43.371Z,6.50
2022-11-29T02:59:34.690Z,6.40
2022-11-29T03:02:23.358Z,6.40
2022-11-29T03:05:27.995Z,6.50
2022-11-29T03:08:25.223Z,6.40
2022-11-29T03:11:19.403Z,6.40
2022-11-29T03:13:57.354Z,6.50
2022-11-29T03:16:45.166Z,6.50
2022-11-29T03:19:39.489Z,6.50
2022-11-29T03:22:15.571Z,6.50
2022-11-29T03:24:56.029Z,6.40
2022-11-29T03:27:40.228Z,6.50
2022-11-29T03:30:10.656Z,6.40
2022-11-29T03:33:18.978Z,6.50
2022-11-29T03:36:17.589Z,6.50
2022-11-29T03:38:46.552Z,6.50
2022-11-29T03:41:43.408Z,6.50
2022-11-29T03:44:15.730Z,6.50
2022-11-29T03:46:58.534Z,6.50
2022-11-29T03:49:40.973Z,6.50
2022-11-29T03:52:15.964Z,6.50
2022-11-29T03:54:43.017Z,6.50
2022-11-29T03:57:11.031Z,6.50
2022-11-29T03:59:57.998Z,6.50
2022-11-29T04:02:46.661Z,6.60
2022-11-29T04:05:31.419Z,6.50
2022-11-29T04:08:08.556Z,6.50
2022-11-29T04:10:54.216Z,6.50
2022-11-29T04:13:48.898Z,6.60
2022-11-29T04:16:33.725Z,6.50
2022-11-29T04:19:24.966Z,6.50
2022-11-29T04:22:20.328Z,6.50
2022-11-29T04:25:01.658Z,6.50
2022-11-29T04:28:10.659Z,6.50
2022-11-29T04:30:53.068Z,6.50
2022-11-29T04:33:30.841Z,6.60
2022-11-29T04:36:18.261Z,6.60
2022-11-29T04:39:04.973Z,6.50
2022-11-29T04:41:52.899Z,6.60
2022-11-29T04:44:44.524Z,6.60
2022-11-29T04:47:48.682Z,6.60
2022-11-29T04:50:24.389Z,6.60
2022-11-29T04:53:05.074Z,6.60
2022-11-29T04:55:59.017Z,6.60
2022-11-29T04:58:50.753Z,6.60
2022-11-29T05:01:35.750Z,6.60
2022-11-29T05:04:05.463Z,6.60
2022-11-29T05:06:45.095Z,6.70
2022-11-29T05:09:42.714Z,6.60
2022-11-29T05:12:15.241Z,6.60
2022-11-29T05:14:54.342Z,6.80
2022-11-29T05:17:47.483Z,6.70
2022-11-29T05:20:33.173Z,6.60
2022-11-29T05:23:02.845Z,6.60
2022-11-29T05:25:39.818Z,6.60
2022-11-29T05:28:24.714Z,6.60
2022-11-29T05:31:24.876Z,6.60
2022-11-29T05:34:30.254Z,6.60
2022-11-29T05:37:22.139Z,6.60
2022-11-29T05:40:33.644Z,6.60
2022-11-29T05:43:34.613Z,6.60
2022-11-29T05:46:38.411Z,6.60
2022-11-29T05:49:29.878Z,6.60
2022-11-29T05:52:15.141Z,6.60
2022-11-29T05:55:13.931Z,6.50
2022-11-29T05:58:00.754Z,6.50
2022-11-29T06:00:44.416Z,6.50
2022-11-29T06:03:39.430Z,6.50
2022-11-29T06:06:14.201Z,6.50
2022-11-29T06:09:00.687Z,6.40
2022-11-29T06:12:19.536Z,6.40
2022-11-29T06:15:25.297Z,6.40
2022-11-29T06:18:08.502Z,6.40
2022-11-29T06:21:08.417Z,6.40
2022-11-29T06:23:58.627Z,6.40
2022-11-29T06:26:44.861Z,6.40
2022-11-29T06:29:24.050Z,6.40
2022-11-29T06:32:08.385Z,6.40
2022-11-29T06:34:44.145Z,6.50
2022-11-29T06:37:23.565Z,6.40
2022-11-29T06:39:50.691Z,6.50
2022-11-29T06:42:17.656Z,6.50
2022-11-29T06:44:44.931Z,6.50
2022-11-29T06:47:30.684Z,6.50
2022-11-29T06:50:05.298Z,6.50
2022-11-29T06:52:46.251Z,6.50
2022-11-29T06:55:32.202Z,6.50
2022-11-29T06:57:58.859Z,6.50
2022-11-29T07:00:28.572Z,6.50
2022-11-29T07:03:36.840Z,6.60
2022-11-29T07:06:23.797Z,6.60
2022-11-29T07:09:10.544Z,6.60
2022-11-29T07:11:37.804Z,6.60
2022-11-29T07:14:04.913Z,6.60
2022-11-29T07:16:37.591Z,6.60
2022-11-29T07:19:28.376Z,6.80
2022-11-29T07:22:09.903Z,6.70
2022-11-29T07:24:47.858Z,6.70
2022-11-29T07:27:27.714Z,6.70
2022-11-29T07:30:11.470Z,6.70
2022-11-29T07:33:00.501Z,6.70
2022-11-29T07:35:30.435Z,6.70
2022-11-29T07:38:44.954Z,6.70
2022-11-29T07:41:29.248Z,6.70
2022-11-29T07:44:01.855Z,6.70
2022-11-29T07:46:29.209Z,6.70
2022-11-29T07:48:56.127Z,6.70
2022-11-29T07:51:22.978Z,6.70
2022-11-29T07:53:49.871Z,6.50
2022-11-29T07:56:16.694Z,6.70
2022-11-29T07:58:43.686Z,6.70
2022-11-29T08:01:10.804Z,6.70
2022-11-29T08:03:37.898Z,6.70
2022-11-29T08:06:04.778Z,6.80
2022-11-29T08:08:31.726Z,6.70
2022-11-29T08:10:58.482Z,6.70
2022-11-29T08:13:25.192Z,6.80
2022-11-29T08:15:52.015Z,6.70
2022-11-29T08:18:18.931Z,6.60
2022-11-29T08:20:46.365Z,6.70
2022-11-29T08:23:14.380Z,6.80
2022-11-29T08:25:41.950Z,6.80
2022-11-29T08:28:09.119Z,6.90
2022-11-29T08:30:35.865Z,6.90
2022-11-29T08:33:02.931Z,6.90
2022-11-29T08:35:31.590Z,6.90
2022-11-29T08:37:58.536Z,6.90
2022-11-29T08:40:25.519Z,6.90
2022-11-29T08:42:52.336Z,6.90
2022-11-29T08:45:19.157Z,6.90
2022-11-29T08:47:46.080Z,6.90
2022-11-29T08:50:18.112Z,6.90
2022-11-29T08:53:07.710Z,6.90
2022-11-29T08:55:37.680Z,6.90
2022-11-29T08:58:10.102Z,6.80
2022-11-29T09:00:37.831Z,6.90
2022-11-29T09:03:24.947Z,6.90
2022-11-29T09:05:52.915Z,6.90
2022-11-29T09:08:20.185Z,6.90
2022-11-29T09:10:48.745Z,6.90
2022-11-29T09:13:15.541Z,6.90
2022-11-29T09:15:43.567Z,6.90
2022-11-29T09:18:10.947Z,7.00
2022-11-29T09:20:37.763Z,6.90
2022-11-29T09:23:04.879Z,7.00
2022-11-29T09:25:31.648Z,7.00
2022-11-29T09:28:02.937Z,7.00
2022-11-29T09:30:31.536Z,7.00
2022-11-29T09:33:05.145Z,7.10
2022-11-29T09:35:32.621Z,6.90
2022-11-29T09:37:59.541Z,7.00
2022-11-29T09:40:37.617Z,7.00
2022-11-29T09:43:48.419Z,7.00
2022-11-29T09:46:58.616Z,7.10
2022-11-29T09:50:16.316Z,7.10
2022-11-29T09:53:38.700Z,7.10
2022-11-29T09:56:29.279Z,7.10
2022-11-29T09:59:10.060Z,7.10
2022-11-29T10:01:54.811Z,7.10
2022-11-29T10:04:37.520Z,7.10
2022-11-29T10:07:36.374Z,7.10
2022-11-29T10:10:18.641Z,7.20
2022-11-29T10:13:11.153Z,7.20
2022-11-29T10:15:44.266Z,7.20
2022-11-29T10:18:19.906Z,7.20
2022-11-29T10:20:49.445Z,7.20
2022-11-29T10:23:33.253Z,7.30
2022-11-29T10:26:00.810Z,7.40
2022-11-29T10:28:31.548Z,7.40
2022-11-29T10:31:28.582Z,7.40
2022-11-29T10:33:58.118Z,7.40
2022-11-29T10:36:40.628Z,7.40
2022-11-29T10:39:21.774Z,7.50
2022-11-29T10:41:54.684Z,7.50
2022-11-29T10:44:21.792Z,7.60
2022-11-29T10:46:48.700Z,7.60
2022-11-29T10:49:18.622Z,7.60
2022-11-29T10:51:48.313Z,7.70
2022-11-29T10:54:38.372Z,7.70
2022-11-29T10:57:14.585Z,7.70
2022-11-29T10:59:41.793Z,7.90
2022-11-29T11:02:19.112Z,7.70
2022-11-29T11:04:48.005Z,7.70
2022-11-29T11:07:25.701Z,7.70
2022-11-29T11:09:56.636Z,7.80
2022-11-29T11:12:30.072Z,7.90
2022-11-29T11:15:26.587Z,7.90
2022-11-29T11:18:04.808Z,7.80
2022-11-29T11:20:37.792Z,7.80
2022-11-29T11:23:07.644Z,7.80
2022-11-29T11:25:40.956Z,7.90
2022-11-29T11:28:23.905Z,7.90
2022-11-29T11:31:11.380Z,7.90
2022-11-29T11:33:43.401Z,7.90
2022-11-29T11:36:27.276Z,8.00
2022-11-29T11:39:12.093Z,7.90
2022-11-29T11:42:01.165Z,7.90
2022-11-29T11:44:49.232Z,7.90
2022-11-29T11:47:24.337Z,7.90
2022-11-29T11:49:54.103Z,7.90
2022-11-29T11:52:46.131Z,8.00
2022-11-29T11:55:16.642Z,8.00
2022-11-29T11:57:43.373Z,8.10
2022-11-29T12:03:45.165Z,8.10
2022-11-29T12:06:35.722Z,8.20
2022-11-29T12:09:25.282Z,8.20
2022-11-29T12:12:00.130Z,8.30
2022-11-29T12:14:42.028Z,8.30
2022-11-29T12:17:31.967Z,8.20
2022-11-29T12:20:10.396Z,8.20
2022-11-29T12:22:48.768Z,8.20
2022-11-29T12:25:21.846Z,8.20
2022-11-29T12:27:52.299Z,8.20
2022-11-29T12:30:19.918Z,8.20
2022-11-29T12:33:17.967Z,8.20
2022-11-29T12:36:00.868Z,8.20
2022-11-29T12:39:07.731Z,8.20
2022-11-29T12:41:59.567Z,8.20
2022-11-29T12:44:43.053Z,8.20
2022-11-29T12:47:37.697Z,8.20
2022-11-29T12:50:14.586Z,8.20
2022-11-29T12:52:59.661Z,8.20
2022-11-29T12:55:53.609Z,8.20
2022-11-29T12:58:55.648Z,8.20
2022-11-29T13:01:58.251Z,8.20
2022-11-29T13:04:59.425Z,8.20
2022-11-29T13:07:46.871Z,8.20
2022-11-29T13:10:48.005Z,8.40
2022-11-29T13:13:20.538Z,8.20
2022-11-29T13:15:58.459Z,8.30
2022-11-29T13:18:43.657Z,8.30
2022-11-29T13:21:17.285Z,8.30
2022-11-29T13:24:10.029Z,8.30
2022-11-29T13:26:39.981Z,8.30
2022-11-29T13:29:15.461Z,8.30
2022-11-29T13:31:43.039Z,8.40
2022-11-29T13:34:42.603Z,8.40
2022-11-29T13:37:24.398Z,8.40
2022-11-29T13:40:03.291Z,8.40
2022-11-29T13:42:33.149Z,8.40
2022-11-29T13:45:21.567Z,8.40
2022-11-29T13:47:58.349Z,8.40
2022-11-29T13:50:37.422Z,8.40
2022-11-29T13:53:13.549Z,8.50
2022-11-29T13:55:50.800Z,8.40
2022-11-29T13:58:32.570Z,8.50
2022-11-29T14:01:00.978Z,8.50
2022-11-29T14:03:34.925Z,8.40
2022-11-29T14:06:01.677Z,8.30
2022-11-29T14:09:10.377Z,8.50
2022-11-29T14:11:44.904Z,8.50
2022-11-29T14:14:17.508Z,8.40
2022-11-29T14:16:44.237Z,8.40
2022-11-29T14:19:33.953Z,8.40
2022-11-29T14:22:06.802Z,8.40
2022-11-29T14:24:36.378Z,8.50
2022-11-29T14:27:06.289Z,8.40
2022-11-29T14:29:50.920Z,8.40
2022-11-29T14:32:26.492Z,8.40
2022-11-29T14:35:11.615Z,8.30
2022-11-29T14:37:49.297Z,8.30
2022-11-29T14:40:41.660Z,8.30
2022-11-29T14:43:36.792Z,8.30
2022-11-29T14:46:15.972Z,8.30
2022-11-29T14:49:03.241Z,8.30
2022-11-29T14:51:32.564Z,8.20
2022-11-29T14:54:14.921Z,8.20
2022-11-29T14:56:46.215Z,8.20
2022-11-29T14:59:41.060Z,8.20
2022-11-29T15:02:20.101Z,8.20
2022-11-29T15:04:50.870Z,8.20
2022-11-29T15:07:23.677Z,8.20
2022-11-29T15:09:51.063Z,8.10
2022-11-29T15:12:23.242Z,8.10
2022-11-29T15:14:58.917Z,8.10
2022-11-29T15:17:49.952Z,8.10
2022-11-29T15:20:40.305Z,8.10
2022-11-29T15:23:14.887Z,8.10
2022-11-29T15:25:52.918Z,8.10
2022-11-29T15:28:27.987Z,8.00
2022-11-29T15:31:08.818Z,8.00
2022-11-29T15:33:43.549Z,8.00
2022-11-29T15:36:18.695Z,8.20
2022-11-29T15:38:55.804Z,8.00
2022-11-29T15:41:27.016Z,8.00
2022-11-29T15:43:57.881Z,8.00
2022-11-29T15:46:29.468Z,8.00
2022-11-29T15:49:14.833Z,8.00
2022-11-29T15:51:42.146Z,7.90
2022-11-29T15:54:28.907Z,8.00
2022-11-29T15:57:04.555Z,7.90
2022-11-29T15:59:36.861Z,7.90
2022-11-29T16:02:31.285Z,7.90
2022-11-29T16:05:16.623Z,8.00
2022-11-29T16:07:46.083Z,8.00
2022-11-29T16:10:17.002Z,8.00
2022-11-29T16:12:54.849Z,8.00
2022-11-29T16:15:31.916Z,8.00
2022-11-29T16:18:12.169Z,7.90
2022-11-29T16:20:39.691Z,8.00
2022-11-29T16:23:13.837Z,8.00
2022-11-29T16:26:04.479Z,8.00
2022-11-29T16:28:40.637Z,7.90
2022-11-29T16:31:12.364Z,8.00
2022-11-29T16:33:42.169Z,7.90
2022-11-29T16:36:24.164Z,7.90
2022-11-29T16:39:04.190Z,7.90
2022-11-29T16:41:36.996Z,7.90
2022-11-29T16:44:05.895Z,7.90
2022-11-29T16:46:40.215Z,7.90
2022-11-29T16:49:34.154Z,7.90
2022-11-29T16:52:01.938Z,7.90
2022-11-29T16:54:36.813Z,7.80
2022-11-29T16:57:09.310Z,7.90
2022-11-29T16:59:39.140Z,7.90
2022-11-29T17:02:10.792Z,7.90
2022-11-29T17:04:37.662Z,7.90
2022-11-29T17:07:07.583Z,7.90
2022-11-29T17:09:35.106Z,8.00
2022-11-29T17:12:02.928Z,7.90
2022-11-29T17:14:29.961Z,7.80
2022-11-29T17:16:57.506Z,7.80
2022-11-29T17:19:34.875Z,7.80
2022-11-29T17:22:05.231Z,7.90
2022-11-29T17:24:32.288Z,7.80
2022-11-29T17:27:02.188Z,7.80
2022-11-29T17:29:29.055Z,7.80
2022-11-29T17:31:56.338Z,7.80
2022-11-29T17:34:23.189Z,7.80
2022-11-29T17:36:50.867Z,7.80
2022-11-29T17:39:21.712Z,7.80
2022-11-29T17:41:55.608Z,7.90
2022-11-29T17:44:22.948Z,8.00
2022-11-29T17:46:49.816Z,7.80
2022-11-29T17:49:18.675Z,7.90
2022-11-29T17:51:53.892Z,7.80
2022-11-29T17:54:25.311Z,7.80
2022-11-29T17:56:52.436Z,7.90
2022-11-29T17:59:19.410Z,7.80
2022-11-29T18:01:48.979Z,7.80
2022-11-29T18:04:21.399Z,7.80
2022-11-29T18:06:55.737Z,7.80
2022-11-29T18:09:22.801Z,7.80
2022-11-29T18:11:50.492Z,7.80
2022-11-29T18:14:23.700Z,7.90
2022-11-29T18:16:53.855Z,7.90
2022-11-29T18:19:31.663Z,7.90
2022-11-29T18:22:07.515Z,7.90
2022-11-29T18:24:43.937Z,7.80
2022-11-29T18:27:10.905Z,7.80
2022-11-29T18:29:39.371Z,7.80
2022-11-29T18:32:06.444Z,7.80
2022-11-29T18:34:36.274Z,7.80
2022-11-29T18:37:03.354Z,7.80
2022-11-29T18:39:30.560Z,7.80
2022-11-29T18:41:57.415Z,7.90
2022-11-29T18:44:29.583Z,7.90
2022-11-29T18:47:04.059Z,7.90
2022-11-29T18:49:33.518Z,7.90
2022-11-29T18:52:00.406Z,7.90
2022-11-29T18:54:29.095Z,7.90
2022-11-29T18:56:55.958Z,7.90
2022-11-29T18:59:37.555Z,7.90
2022-11-29T19:02:10.247Z,7.90
2022-11-29T19:04:40.158Z,7.90
2022-11-29T19:07:06.990Z,7.80
2022-11-29T19:09:33.799Z,7.80
2022-11-29T19:12:03.904Z,7.80
2022-11-29T19:14:36.544Z,7.80
2022-11-29T19:17:03.489Z,7.70
2022-11-29T19:19:32.103Z,7.80
2022-11-29T19:21:59.767Z,7.80
2022-11-29T19:24:35.747Z,7.80
2022-11-29T19:27:04.633Z,7.80
2022-11-29T19:29:36.668Z,7.70
2022-11-29T19:32:08.520Z,7.70
2022-11-29T19:34:35.271Z,7.70
2022-11-29T19:37:02.046Z,7.70
2022-11-29T19:39:30.512Z,7.70
2022-11-29T19:41:57.349Z,7.70
2022-11-29T19:44:29.820Z,7.70
2022-11-29T19:46:56.935Z,7.70
2022-11-29T19:49:27.064Z,7.70
2022-11-29T19:51:54.183Z,7.60
2022-11-29T19:54:21.094Z,7.60
2022-11-29T19:56:48.033Z,7.60
2022-11-29T19:59:18.578Z,7.60
2022-11-29T20:01:52.694Z,7.60
2022-11-29T20:04:19.841Z,7.60
2022-11-29T20:06:46.747Z,7.60
2022-11-29T20:09:14.180Z,7.60
2022-11-29T20:11:44.927Z,7.60
2022-11-29T20:14:18.751Z,7.60
2022-11-29T20:16:46.020Z,7.50
2022-11-29T20:19:15.854Z,7.50
2022-11-29T20:21:45.877Z,7.60
2022-11-29T20:24:14.518Z,7.60
2022-11-29T20:26:49.815Z,7.50
2022-11-29T20:29:17.600Z,7.50
2022-11-29T20:31:50.019Z,7.50
2022-11-29T20:34:18.302Z,7.40
2022-11-29T20:37:20.232Z,7.50
2022-11-29T20:40:02.413Z,7.40
2022-11-29T20:42:34.969Z,7.40
2022-11-29T20:45:09.774Z,7.40
2022-11-29T20:47:53.236Z,7.40
2022-11-29T20:50:28.699Z,7.40
2022-11-29T20:53:31.655Z,7.40
2022-11-29T20:55:58.673Z,7.40
2022-11-29T20:58:26.601Z,7.40
2022-11-29T21:00:59.926Z,7.40
2022-11-29T21:03:34.251Z,7.40
2022-11-29T21:06:03.675Z,7.40
2022-11-29T21:08:30.690Z,7.40
2022-11-29T21:11:10.277Z,7.30
2022-11-29T21:13:37.950Z,7.30
2022-11-29T21:16:09.814Z,7.30
2022-11-29T21:18:37.041Z,7.30
2022-11-29T21:21:07.114Z,7.30
2022-11-29T21:24:07.861Z,7.30
2022-11-29T21:26:41.691Z,7.30
2022-11-29T21:29:14.962Z,7.30
2022-11-29T21:31:42.279Z,7.20
2022-11-29T21:34:09.274Z,7.20
2022-11-29T21:36:37.299Z,7.20
2022-11-29T21:39:06.464Z,7.30
2022-11-29T21:41:33.484Z,7.20
2022-11-29T21:44:08.281Z,7.20
2022-11-29T21:46:35.866Z,7.20
2022-11-29T21:49:03.296Z,7.20
2022-11-29T21:51:30.365Z,7.10
2022-11-29T21:53:57.248Z,7.10
2022-11-29T21:56:27.137Z,7.10
2022-11-29T21:58:54.256Z,7.10
2022-11-29T22:01:21.199Z,7.10
2022-11-29T22:03:47.971Z,7.00
2022-11-29T22:06:20.320Z,7.00
2022-11-29T22:08:48.382Z,7.00
2022-11-29T22:11:30.678Z,7.00
2022-11-29T22:14:18.568Z,7.00
2022-11-29T22:17:00.024Z,7.00
2022-11-29T22:19:32.364Z,7.00
2022-11-29T22:22:01.730Z,7.00
2022-11-29T22:24:31.372Z,7.00
2022-11-29T22:26:58.223Z,7.00
2022-11-29T22:29:25.460Z,6.90
2022-11-29T22:31:54.831Z,6.90
2022-11-29T22:34:22.884Z,6.90
2022-11-29T22:36:49.673Z,6.90
2022-11-29T22:39:16.459Z,6.90
2022-11-29T22:41:43.518Z,6.90
2022-11-29T22:44:10.556Z,6.90
2022-11-29T22:46:40.170Z,7.00
2022-11-29T22:49:07.422Z,7.10
2022-11-29T22:51:36.463Z,7.00
2022-11-29T22:54:06.291Z,7.00
2022-11-29T22:56:36.539Z,7.00
2022-11-29T22:59:04.027Z,7.00
2022-11-29T23:01:32.947Z,6.90
2022-11-29T23:04:03.937Z,6.90
2022-11-29T23:06:33.093Z,6.90
2022-11-29T23:09:10.506Z,6.90
2022-11-29T23:11:37.933Z,6.90
2022-11-29T23:14:04.890Z,6.90
2022-11-29T23:16:32.794Z,6.90
2022-11-29T23:19:00.562Z,6.90
2022-11-29T23:21:33.279Z,7.00
2022-11-29T23:24:01.316Z,6.90
2022-11-29T23:26:38.945Z,6.90
2022-11-29T23:29:07.721Z,6.90
2022-11-29T23:31:34.554Z,6.90
2022-11-29T23:34:02.419Z,6.90
2022-11-29T23:36:29.632Z,6.90
2022-11-29T23:38:56.529Z,6.90
2022-11-29T23:41:23.378Z,6.90
2022-11-29T23:43:50.192Z,6.90
2022-11-29T23:46:19.938Z,6.90
2022-11-29T23:48:47.077Z,7.00
2022-11-29T23:51:14.781Z,7.00
2022-11-29T23:53:42.097Z,6.90
2022-11-29T23:56:15.899Z,7.00
2022-11-29T23:58:44.360Z,7.00
